Terminal Aerodrome Forecast
Issued by NWS Cleveland, OH

Home | Current Version | Previous Version | Graphics & Text | Print | Product List | Glossary On
Versions: 1 2 3 4 5 6 7 8 9 10 11 12 13 14 15 16 17 18 19 20 21 22 23 24 25 26 27 28
000
FTUS41 KCLE 290800 AAA
TAFCLE
TAF AMD
KCLE 290857Z 2909/3012 16012G20KT P6SM SCT050 OVC100
      TEMPO 2913/2916 -FZRA SCT012 OVC050
     FM291600 18014G20KT 5SM -FZRA BR OVC012
      TEMPO 2916/2918 3SM -RAPL OVC008
     FM291800 20012KT 1 1/2SM -SN OVC008
     FM300100 27014KT 4SM -SN BR OVC008
     FM300400 29015G25KT P6SM OVC015=

USA.gov is the U.S. government's official web portal to all federal, state and local government web resources and services.